Check out our new PWSWeather beta!
PWSweather.com
Personal Weather Stations
Station Observations
IMAZOWIE6
WarszawaPL

WarszawaPL

Lat: 52.27957, Lon: 21.05489

Elevation: 100

Station Type: WS1080

http://stacjapogody.waw.pl/

High Low Average
Temperature 57.0°F13.9°C 44.4°F6.9°C 49.7°F9.8°C
Dew Point -167.1°F-110.6°C -168.4°F-111.3°C -167.8°F-111.0°C
Winds 3.4 mph 5.5 kmh Calm Calm 1.0 mph N1.6 kmh N
Wind Gusts 6.8 mph10.9 kmh 0.6 mph1.0 kmh 3.0 mph4.8 kmh
Humidity - - -
Pressure 29.49 in998.6 mb 29.24 in990.2 mb -
Precipitation 0.00 in0.0 mm - -
Hour Temp Dew Point Humidity Winds Wind Gusts Pressure Precip Precip Rate Daily Precip Total
12:02 AM 44.4°F6.9°C -168.4°F-111.3°C - 2.0 mph N3.2 kmh N 4.0 mph6.4 kmh 29.43 in996.6 mb 0.00 in0.0 mm 0.00 in0.0 mm 0.00 in0.0 mm
12:17 AM 44.4°F6.9°C -168.4°F-111.3°C - 2.0 mph N3.2 kmh N 3.4 mph5.5 kmh 29.43 in996.6 mb 0.00 in0.0 mm 0.00 in0.0 mm 0.00 in0.0 mm
12:32 AM 44.4°F6.9°C -168.4°F-111.3°C - 2.0 mph N3.2 kmh N 3.4 mph5.5 kmh 29.44 in997.0 mb 0.01 in0.3 mm 0.05 in1.3 mm 0.01 in0.3 mm
12:47 AM 44.4°F6.9°C -168.4°F-111.3°C - 2.0 mph N3.2 kmh N 3.4 mph5.5 kmh 29.44 in997.0 mb 0.01 in0.3 mm 0.00 in0.0 mm 0.01 in0.3 mm
01:02 AM 44.6°F7.0°C -168.3°F-111.3°C - 2.0 mph N3.2 kmh N 4.0 mph6.4 kmh 29.44 in997.0 mb 0.01 in0.3 mm 0.00 in0.0 mm 0.01 in0.3 mm
01:17 AM 44.6°F7.0°C -168.3°F-111.3°C - 2.0 mph N3.2 kmh N 4.8 mph7.7 kmh 29.44 in997.0 mb 0.00 in0.0 mm 0.00 in0.0 mm 0.01 in0.3 mm
01:32 AM 44.8°F7.1°C -168.3°F-111.3°C - 1.4 mph N2.3 kmh N 2.8 mph4.5 kmh 29.44 in997.0 mb 0.00 in0.0 mm 0.00 in0.0 mm 0.01 in0.3 mm
01:47 AM 44.8°F7.1°C -168.3°F-111.3°C - 1.4 mph N2.3 kmh N 2.8 mph4.5 kmh 29.44 in997.0 mb 0.00 in0.0 mm 0.00 in0.0 mm 0.01 in0.3 mm
02:02 AM 45.0°F7.2°C -168.3°F-111.3°C - 2.0 mph N3.2 kmh N 4.8 mph7.7 kmh 29.44 in997.0 mb 0.00 in0.0 mm 0.00 in0.0 mm 0.01 in0.3 mm
02:17 AM 45.0°F7.2°C -168.3°F-111.3°C - 1.4 mph N2.3 kmh N 3.4 mph5.5 kmh 29.44 in997.0 mb 0.00 in0.0 mm 0.00 in0.0 mm 0.01 in0.3 mm
02:32 AM 45.0°F7.2°C -168.3°F-111.3°C - 2.0 mph N3.2 kmh N 3.4 mph5.5 kmh 29.45 in997.3 mb 0.00 in0.0 mm 0.00 in0.0 mm 0.01 in0.3 mm
02:47 AM 44.8°F7.1°C -168.3°F-111.3°C - 1.4 mph N2.3 kmh N 4.0 mph6.4 kmh 29.45 in997.3 mb 0.00 in0.0 mm 0.00 in0.0 mm 0.01 in0.3 mm
03:02 AM 44.6°F7.0°C -168.3°F-111.3°C - 2.0 mph N3.2 kmh N 4.0 mph6.4 kmh 29.45 in997.3 mb 0.00 in0.0 mm 0.00 in0.0 mm 0.01 in0.3 mm
03:17 AM 44.6°F7.0°C -168.3°F-111.3°C - 2.0 mph N3.2 kmh N 4.0 mph6.4 kmh 29.46 in997.6 mb 0.00 in0.0 mm 0.00 in0.0 mm 0.01 in0.3 mm
03:32 AM 44.6°F7.0°C -168.3°F-111.3°C - 2.0 mph N3.2 kmh N 4.8 mph7.7 kmh 29.46 in997.6 mb 0.00 in0.0 mm 0.00 in0.0 mm 0.01 in0.3 mm
03:47 AM 44.4°F6.9°C -168.4°F-111.3°C - 0.6 mph N1.0 kmh N 2.0 mph3.2 kmh 29.46 in997.6 mb 0.00 in0.0 mm 0.00 in0.0 mm 0.01 in0.3 mm
04:02 AM 44.6°F7.0°C -168.3°F-111.3°C - 1.4 mph N2.3 kmh N 4.0 mph6.4 kmh 29.45 in997.3 mb 0.00 in0.0 mm 0.00 in0.0 mm 0.01 in0.3 mm
04:17 AM 44.8°F7.1°C -168.3°F-111.3°C - 2.0 mph N3.2 kmh N 3.4 mph5.5 kmh 29.46 in997.6 mb 0.00 in0.0 mm 0.00 in0.0 mm 0.01 in0.3 mm
04:32 AM 45.0°F7.2°C -168.3°F-111.3°C - 1.4 mph N2.3 kmh N 2.8 mph4.5 kmh 29.47 in998.0 mb 0.00 in0.0 mm 0.00 in0.0 mm 0.01 in0.3 mm
04:47 AM 45.0°F7.2°C -168.3°F-111.3°C - 1.4 mph N2.3 kmh N 3.4 mph5.5 kmh 29.46 in997.6 mb 0.00 in0.0 mm 0.00 in0.0 mm 0.01 in0.3 mm
05:02 AM 45.0°F7.2°C -168.3°F-111.3°C - 1.4 mph N2.3 kmh N 3.4 mph5.5 kmh 29.47 in998.0 mb 0.00 in0.0 mm 0.00 in0.0 mm 0.01 in0.3 mm
05:17 AM 45.1°F7.3°C -168.3°F-111.3°C - 2.0 mph N3.2 kmh N 4.0 mph6.4 kmh 29.46 in997.6 mb 0.00 in0.0 mm 0.00 in0.0 mm 0.01 in0.3 mm
05:32 AM 45.1°F7.3°C -168.3°F-111.3°C - 1.4 mph N2.3 kmh N 2.8 mph4.5 kmh 29.46 in997.6 mb 0.00 in0.0 mm 0.00 in0.0 mm 0.01 in0.3 mm
05:47 AM 45.3°F7.4°C -168.3°F-111.3°C - 1.4 mph N2.3 kmh N 4.0 mph6.4 kmh 29.46 in997.6 mb 0.00 in0.0 mm 0.00 in0.0 mm 0.01 in0.3 mm
06:02 AM 45.1°F7.3°C -168.3°F-111.3°C - 1.4 mph N2.3 kmh N 2.8 mph4.5 kmh 29.46 in997.6 mb 0.00 in0.0 mm 0.00 in0.0 mm 0.01 in0.3 mm
06:17 AM 45.5°F7.5°C -168.3°F-111.3°C - 0.6 mph N1.0 kmh N 1.4 mph2.3 kmh 29.47 in998.0 mb 0.00 in0.0 mm 0.00 in0.0 mm 0.01 in0.3 mm
06:32 AM 45.3°F7.4°C -168.3°F-111.3°C - 1.4 mph N2.3 kmh N 2.8 mph4.5 kmh 29.47 in998.0 mb 0.00 in0.0 mm 0.00 in0.0 mm 0.01 in0.3 mm
06:47 AM 45.7°F7.6°C -168.2°F-111.2°C - 1.4 mph N2.3 kmh N 3.4 mph5.5 kmh 29.47 in998.0 mb 0.00 in0.0 mm 0.00 in0.0 mm 0.01 in0.3 mm
07:02 AM 45.5°F7.5°C -168.3°F-111.3°C - 0.6 mph N1.0 kmh N 2.0 mph3.2 kmh 29.47 in998.0 mb 0.00 in0.0 mm 0.00 in0.0 mm 0.01 in0.3 mm
07:17 AM 46.0°F7.8°C -168.2°F-111.2°C - 1.4 mph N2.3 kmh N 2.8 mph4.5 kmh 29.47 in998.0 mb 0.00 in0.0 mm 0.00 in0.0 mm 0.01 in0.3 mm
07:32 AM 46.4°F8.0°C -168.2°F-111.2°C - 1.4 mph N2.3 kmh N 2.8 mph4.5 kmh 29.47 in998.0 mb 0.00 in0.0 mm 0.00 in0.0 mm 0.01 in0.3 mm
07:47 AM 46.8°F8.2°C -168.1°F-111.2°C - 1.4 mph N2.3 kmh N 3.4 mph5.5 kmh 29.47 in998.0 mb 0.00 in0.0 mm 0.00 in0.0 mm 0.01 in0.3 mm
08:02 AM 46.8°F8.2°C -168.1°F-111.2°C - 1.4 mph N2.3 kmh N 2.8 mph4.5 kmh 29.47 in998.0 mb 0.00 in0.0 mm 0.00 in0.0 mm 0.01 in0.3 mm
08:17 AM 47.1°F8.4°C -168.1°F-111.2°C - 1.4 mph N2.3 kmh N 2.8 mph4.5 kmh 29.48 in998.3 mb 0.00 in0.0 mm 0.00 in0.0 mm 0.01 in0.3 mm
08:32 AM 47.8°F8.8°C -168.0°F-111.1°C - Calm Calm 0.6 mph1.0 kmh 29.48 in998.3 mb 0.00 in0.0 mm 0.00 in0.0 mm 0.01 in0.3 mm
08:47 AM 48.6°F9.2°C -167.9°F-111.1°C - 0.6 mph N1.0 kmh N 2.0 mph3.2 kmh 29.48 in998.3 mb 0.00 in0.0 mm 0.00 in0.0 mm 0.01 in0.3 mm
09:02 AM 50.7°F10.4°C -167.7°F-110.9°C - 0.6 mph N1.0 kmh N 2.0 mph3.2 kmh 29.48 in998.3 mb 0.00 in0.0 mm 0.00 in0.0 mm 0.01 in0.3 mm
09:17 AM 52.0°F11.1°C -167.6°F-110.9°C - 1.4 mph N2.3 kmh N 3.4 mph5.5 kmh 29.48 in998.3 mb 0.00 in0.0 mm 0.00 in0.0 mm 0.01 in0.3 mm
09:32 AM 52.0°F11.1°C -167.6°F-110.9°C - 0.6 mph N1.0 kmh N 2.0 mph3.2 kmh 29.48 in998.3 mb 0.00 in0.0 mm 0.00 in0.0 mm 0.01 in0.3 mm
09:47 AM 52.2°F11.2°C -167.6°F-110.9°C - 0.6 mph N1.0 kmh N 2.8 mph4.5 kmh 29.49 in998.6 mb 0.00 in0.0 mm 0.00 in0.0 mm 0.01 in0.3 mm
10:02 AM 51.8°F11.0°C -167.6°F-110.9°C - 0.6 mph N1.0 kmh N 2.0 mph3.2 kmh 29.48 in998.3 mb 0.00 in0.0 mm 0.00 in0.0 mm 0.01 in0.3 mm
10:17 AM 52.3°F11.3°C -167.6°F-110.9°C - 0.6 mph N1.0 kmh N 2.0 mph3.2 kmh 29.48 in998.3 mb 0.00 in0.0 mm 0.00 in0.0 mm 0.01 in0.3 mm
10:33 AM 53.2°F11.8°C -167.5°F-110.8°C - 1.4 mph N2.3 kmh N 2.8 mph4.5 kmh 29.47 in998.0 mb 0.00 in0.0 mm 0.00 in0.0 mm 0.01 in0.3 mm
10:49 AM 54.0°F12.2°C -167.4°F-110.8°C - 1.4 mph N2.3 kmh N 3.4 mph5.5 kmh 29.48 in998.3 mb 0.00 in0.0 mm 0.00 in0.0 mm 0.01 in0.3 mm
11:05 AM 54.1°F12.3°C -167.4°F-110.8°C - 2.0 mph N3.2 kmh N 3.4 mph5.5 kmh 29.47 in998.0 mb 0.00 in0.0 mm 0.00 in0.0 mm 0.01 in0.3 mm
11:21 AM 54.7°F12.6°C -167.3°F-110.7°C - 0.6 mph N1.0 kmh N 2.0 mph3.2 kmh 29.47 in998.0 mb 0.00 in0.0 mm 0.00 in0.0 mm 0.01 in0.3 mm
11:32 AM 55.0°F12.8°C -167.3°F-110.7°C - 3.4 mph N5.5 kmh N 6.8 mph10.9 kmh 29.47 in998.0 mb 0.00 in0.0 mm 0.00 in0.0 mm 0.01 in0.3 mm
11:48 AM 55.0°F12.8°C -167.3°F-110.7°C - 2.0 mph N3.2 kmh N 3.4 mph5.5 kmh 29.47 in998.0 mb 0.00 in0.0 mm 0.00 in0.0 mm 0.01 in0.3 mm
12:04 PM 55.4°F13.0°C -167.3°F-110.7°C - 1.4 mph N2.3 kmh N 4.0 mph6.4 kmh 29.46 in997.6 mb 0.00 in0.0 mm 0.00 in0.0 mm 0.01 in0.3 mm
12:20 PM 55.2°F12.9°C -167.3°F-110.7°C - Calm Calm 2.0 mph3.2 kmh 29.46 in997.6 mb 0.00 in0.0 mm 0.00 in0.0 mm 0.01 in0.3 mm
12:36 PM 55.6°F13.1°C -167.2°F-110.7°C - 1.4 mph N2.3 kmh N 4.8 mph7.7 kmh 29.45 in997.3 mb 0.00 in0.0 mm 0.00 in0.0 mm 0.01 in0.3 mm
12:47 PM 55.8°F13.2°C -167.2°F-110.7°C - Calm Calm 1.4 mph2.3 kmh 29.44 in997.0 mb 0.00 in0.0 mm 0.00 in0.0 mm 0.01 in0.3 mm
01:03 PM 55.6°F13.1°C -167.2°F-110.7°C - 1.4 mph N2.3 kmh N 4.0 mph6.4 kmh 29.44 in997.0 mb 0.00 in0.0 mm 0.00 in0.0 mm 0.01 in0.3 mm
01:19 PM 55.6°F13.1°C -167.2°F-110.7°C - Calm Calm 1.4 mph2.3 kmh 29.43 in996.6 mb 0.00 in0.0 mm 0.00 in0.0 mm 0.01 in0.3 mm
01:35 PM 55.8°F13.2°C -167.2°F-110.7°C - Calm Calm 2.8 mph4.5 kmh 29.43 in996.6 mb 0.00 in0.0 mm 0.00 in0.0 mm 0.01 in0.3 mm
01:51 PM 55.9°F13.3°C -167.2°F-110.7°C - 0.6 mph N1.0 kmh N 2.0 mph3.2 kmh 29.42 in996.3 mb 0.00 in0.0 mm 0.00 in0.0 mm 0.01 in0.3 mm
02:07 PM 55.8°F13.2°C -167.2°F-110.7°C - Calm Calm 1.4 mph2.3 kmh 29.41 in995.9 mb 0.00 in0.0 mm 0.00 in0.0 mm 0.01 in0.3 mm
02:17 PM 55.9°F13.3°C -167.2°F-110.7°C - Calm Calm 1.4 mph2.3 kmh 29.40 in995.6 mb 0.00 in0.0 mm 0.00 in0.0 mm 0.01 in0.3 mm
02:33 PM 55.9°F13.3°C -167.2°F-110.7°C - 1.4 mph N2.3 kmh N 4.0 mph6.4 kmh 29.40 in995.6 mb 0.00 in0.0 mm 0.00 in0.0 mm 0.01 in0.3 mm
02:49 PM 56.8°F13.8°C -167.1°F-110.6°C - 2.0 mph N3.2 kmh N 4.8 mph7.7 kmh 29.39 in995.3 mb 0.00 in0.0 mm 0.00 in0.0 mm 0.01 in0.3 mm
03:05 PM 57.0°F13.9°C -167.1°F-110.6°C - 2.0 mph N3.2 kmh N 4.0 mph6.4 kmh 29.39 in995.3 mb 0.00 in0.0 mm 0.00 in0.0 mm 0.01 in0.3 mm
03:20 PM 56.7°F13.7°C -167.1°F-110.6°C - 3.4 mph N5.5 kmh N 6.2 mph10.0 kmh 29.39 in995.3 mb 0.00 in0.0 mm 0.00 in0.0 mm 0.01 in0.3 mm
03:35 PM 57.0°F13.9°C -167.1°F-110.6°C - Calm Calm 1.4 mph2.3 kmh 29.38 in994.9 mb 0.00 in0.0 mm 0.00 in0.0 mm 0.01 in0.3 mm
03:50 PM 57.0°F13.9°C -167.1°F-110.6°C - Calm Calm 2.0 mph3.2 kmh 29.37 in994.6 mb 0.00 in0.0 mm 0.00 in0.0 mm 0.01 in0.3 mm
04:05 PM 56.7°F13.7°C -167.1°F-110.6°C - 0.6 mph N1.0 kmh N 3.4 mph5.5 kmh 29.37 in994.6 mb 0.00 in0.0 mm 0.00 in0.0 mm 0.01 in0.3 mm
04:20 PM 56.5°F13.6°C -167.2°F-110.7°C - Calm Calm 1.4 mph2.3 kmh 29.37 in994.6 mb 0.00 in0.0 mm 0.00 in0.0 mm 0.01 in0.3 mm
04:35 PM 56.3°F13.5°C -167.2°F-110.7°C - 1.4 mph N2.3 kmh N 3.4 mph5.5 kmh 29.36 in994.2 mb 0.00 in0.0 mm 0.00 in0.0 mm 0.01 in0.3 mm
04:50 PM 55.9°F13.3°C -167.2°F-110.7°C - 1.4 mph N2.3 kmh N 3.4 mph5.5 kmh 29.36 in994.2 mb 0.00 in0.0 mm 0.00 in0.0 mm 0.01 in0.3 mm
05:05 PM 55.6°F13.1°C -167.2°F-110.7°C - 0.6 mph N1.0 kmh N 4.8 mph7.7 kmh 29.35 in993.9 mb 0.00 in0.0 mm 0.00 in0.0 mm 0.01 in0.3 mm
05:21 PM 54.9°F12.7°C -167.3°F-110.7°C - 2.0 mph N3.2 kmh N 5.4 mph8.7 kmh 29.35 in993.9 mb 0.00 in0.0 mm 0.00 in0.0 mm 0.01 in0.3 mm
05:36 PM 54.1°F12.3°C -167.4°F-110.8°C - 0.6 mph N1.0 kmh N 2.8 mph4.5 kmh 29.34 in993.6 mb 0.00 in0.0 mm 0.00 in0.0 mm 0.01 in0.3 mm
05:51 PM 53.2°F11.8°C -167.5°F-110.8°C - 0.6 mph N1.0 kmh N 2.8 mph4.5 kmh 29.34 in993.6 mb 0.00 in0.0 mm 0.00 in0.0 mm 0.01 in0.3 mm
06:06 PM 52.7°F11.5°C -167.5°F-110.8°C - 1.4 mph N2.3 kmh N 2.8 mph4.5 kmh 29.34 in993.6 mb 0.00 in0.0 mm 0.00 in0.0 mm 0.01 in0.3 mm
06:21 PM 52.3°F11.3°C -167.6°F-110.9°C - 1.4 mph N2.3 kmh N 4.8 mph7.7 kmh 29.33 in993.2 mb 0.00 in0.0 mm 0.00 in0.0 mm 0.01 in0.3 mm
06:36 PM 51.6°F10.9°C -167.6°F-110.9°C - 1.4 mph N2.3 kmh N 4.0 mph6.4 kmh 29.33 in993.2 mb 0.00 in0.0 mm 0.00 in0.0 mm 0.01 in0.3 mm
06:51 PM 51.4°F10.8°C -167.7°F-110.9°C - 2.0 mph N3.2 kmh N 6.2 mph10.0 kmh 29.32 in992.9 mb 0.00 in0.0 mm 0.00 in0.0 mm 0.01 in0.3 mm
07:06 PM 51.3°F10.7°C -167.7°F-110.9°C - 1.4 mph N2.3 kmh N 6.8 mph10.9 kmh 29.32 in992.9 mb 0.00 in0.0 mm 0.00 in0.0 mm 0.01 in0.3 mm
07:21 PM 50.9°F10.5°C -167.7°F-110.9°C - 1.4 mph N2.3 kmh N 4.8 mph7.7 kmh 29.31 in992.6 mb 0.00 in0.0 mm 0.00 in0.0 mm 0.01 in0.3 mm
07:36 PM 50.5°F10.3°C -167.7°F-110.9°C - 0.6 mph N1.0 kmh N 4.0 mph6.4 kmh 29.31 in992.6 mb 0.00 in0.0 mm 0.00 in0.0 mm 0.01 in0.3 mm
07:51 PM 50.2°F10.1°C -167.8°F-111.0°C - 0.6 mph N1.0 kmh N 2.8 mph4.5 kmh 29.30 in992.2 mb 0.00 in0.0 mm 0.00 in0.0 mm 0.01 in0.3 mm
08:06 PM 49.8°F9.9°C -167.8°F-111.0°C - 1.4 mph N2.3 kmh N 4.0 mph6.4 kmh 29.30 in992.2 mb 0.00 in0.0 mm 0.00 in0.0 mm 0.01 in0.3 mm
08:21 PM 49.3°F9.6°C -167.9°F-111.1°C - 1.4 mph N2.3 kmh N 3.4 mph5.5 kmh 29.30 in992.2 mb 0.00 in0.0 mm 0.00 in0.0 mm 0.01 in0.3 mm
08:36 PM 48.7°F9.3°C -167.9°F-111.1°C - 1.4 mph N2.3 kmh N 2.8 mph4.5 kmh 29.29 in991.9 mb 0.00 in0.0 mm 0.00 in0.0 mm 0.01 in0.3 mm
08:51 PM 48.4°F9.1°C -168.0°F-111.1°C - 1.4 mph N2.3 kmh N 4.0 mph6.4 kmh 29.29 in991.9 mb 0.00 in0.0 mm 0.00 in0.0 mm 0.01 in0.3 mm
09:06 PM 48.2°F9.0°C -168.0°F-111.1°C - 1.4 mph N2.3 kmh N 4.0 mph6.4 kmh 29.29 in991.9 mb 0.00 in0.0 mm 0.00 in0.0 mm 0.01 in0.3 mm
09:21 PM 47.5°F8.6°C -168.1°F-111.2°C - 1.4 mph N2.3 kmh N 4.8 mph7.7 kmh 29.29 in991.9 mb 0.00 in0.0 mm 0.00 in0.0 mm 0.01 in0.3 mm
09:36 PM 47.1°F8.4°C -168.1°F-111.2°C - 1.4 mph N2.3 kmh N 3.4 mph5.5 kmh 29.28 in991.5 mb 0.00 in0.0 mm 0.00 in0.0 mm 0.01 in0.3 mm
09:51 PM 46.9°F8.3°C -168.1°F-111.2°C - 0.6 mph N1.0 kmh N 3.4 mph5.5 kmh 29.28 in991.5 mb 0.00 in0.0 mm 0.00 in0.0 mm 0.01 in0.3 mm
10:06 PM 46.9°F8.3°C -168.1°F-111.2°C - 2.0 mph N3.2 kmh N 5.4 mph8.7 kmh 29.27 in991.2 mb 0.00 in0.0 mm 0.00 in0.0 mm 0.01 in0.3 mm
10:21 PM 46.6°F8.1°C -168.1°F-111.2°C - 2.8 mph N4.5 kmh N 6.2 mph10.0 kmh 29.26 in990.9 mb 0.00 in0.0 mm 0.00 in0.0 mm 0.01 in0.3 mm
10:36 PM 46.0°F7.8°C -168.2°F-111.2°C - 0.6 mph N1.0 kmh N 4.0 mph6.4 kmh 29.26 in990.9 mb 0.00 in0.0 mm 0.00 in0.0 mm 0.01 in0.3 mm
10:51 PM 45.7°F7.6°C -168.2°F-111.2°C - 0.6 mph N1.0 kmh N 4.0 mph6.4 kmh 29.26 in990.9 mb 0.00 in0.0 mm 0.00 in0.0 mm 0.01 in0.3 mm
11:06 PM 45.5°F7.5°C -168.3°F-111.3°C - 1.4 mph N2.3 kmh N 3.4 mph5.5 kmh 29.25 in990.5 mb 0.00 in0.0 mm 0.00 in0.0 mm 0.01 in0.3 mm
11:21 PM 45.1°F7.3°C -168.3°F-111.3°C - 2.0 mph N3.2 kmh N 5.4 mph8.7 kmh 29.25 in990.5 mb 0.00 in0.0 mm 0.00 in0.0 mm 0.01 in0.3 mm
11:36 PM 45.1°F7.3°C -168.3°F-111.3°C - 0.6 mph N1.0 kmh N 2.8 mph4.5 kmh 29.25 in990.5 mb 0.00 in0.0 mm 0.00 in0.0 mm 0.01 in0.3 mm
11:51 PM 45.0°F7.2°C -168.3°F-111.3°C - 1.4 mph N2.3 kmh N 4.8 mph7.7 kmh 29.24 in990.2 mb 0.00 in0.0 mm 0.00 in0.0 mm 0.01 in0.3 mm